RJGG W M0030
RNAV RWY36 USING RWY 36 DEP FREQ 120.0 ILS-LOC,GP FOR RWY 18 ON TEST DO NOT USE DUE TO FLT CK RMK/FALSE INDICATIONS POSSIBLE M 170030Z 36005KT 10KM FEW020CU SCT120AC BKN150AC 17/13 Q1014/A2996= Q/TWO NINE NINE SIX STP

TAF RJGG 162313Z 1700/1806 32007KT 9999 FEW030
BECMG 1702/1704 18010KT
BECMG 1715/1718 32009KT
BECMG 1800/1803 18012KT